createdAt,value
2023-04-28T00:00:11.868Z,146462.53
2023-04-28T00:01:14.110Z,146466.16
2023-04-28T00:02:17.175Z,146463.75
2023-04-28T00:03:19.496Z,146472.19
2023-04-28T00:04:22.319Z,146477.00
2023-04-28T00:05:25.358Z,146481.81
2023-04-28T00:06:27.634Z,146481.81
2023-04-28T00:07:29.806Z,146468.56
2023-04-28T00:08:32.117Z,146467.34
2023-04-28T00:09:34.365Z,146468.56
2023-04-28T00:10:36.506Z,146467.34
2023-04-28T00:11:38.764Z,146466.16
2023-04-28T00:12:40.962Z,146457.69
2023-04-28T00:13:43.066Z,146454.06
2023-04-28T00:14:45.419Z,146462.53
2023-04-28T00:15:47.548Z,146467.34
2023-04-28T00:16:50.127Z,146456.47
2023-04-28T00:17:52.561Z,146462.53
2023-04-28T00:18:54.788Z,146455.28
2023-04-28T00:19:57.683Z,146457.69
2023-04-28T00:21:01.577Z,146451.66
2023-04-28T00:22:04.899Z,146462.53
2023-04-28T00:23:07.143Z,146452.84
2023-04-28T00:24:09.370Z,146455.28
2023-04-28T00:25:11.568Z,146443.22
2023-04-28T00:26:13.950Z,146423.91
2023-04-28T00:27:18.624Z,146436.00
2023-04-28T00:29:29.844Z,146431.19
2023-04-28T00:30:32.073Z,146428.78
2023-04-28T00:31:35.479Z,146428.78
2023-04-28T00:32:37.792Z,146438.41
2023-04-28T00:33:41.024Z,146431.19
2023-04-28T00:34:43.149Z,146411.88
2023-04-28T00:35:46.237Z,146409.47
2023-04-28T00:36:48.534Z,146409.47
2023-04-28T00:37:50.761Z,146408.25
2023-04-28T00:38:53.055Z,146402.22
2023-04-28T00:39:56.616Z,146423.91
2023-04-28T00:40:58.837Z,146411.88
2023-04-28T00:42:02.156Z,146392.56
2023-04-28T00:43:04.462Z,146399.81
2023-04-28T00:44:06.608Z,146393.75
2023-04-28T00:45:09.379Z,146392.56
2023-04-28T00:46:20.164Z,146409.47
2023-04-28T00:47:22.658Z,146378.09
2023-04-28T00:48:27.748Z,146370.88
2023-04-28T00:49:30.761Z,146380.50
2023-04-28T00:50:33.462Z,146378.09
2023-04-28T00:51:35.701Z,146370.88
2023-04-28T00:52:39.085Z,146390.16
2023-04-28T00:53:41.792Z,146375.69
2023-04-28T00:54:44.192Z,146385.34
2023-04-28T00:55:48.077Z,146382.91
2023-04-28T00:56:50.333Z,146378.09
2023-04-28T00:57:55.466Z,146379.31
2023-04-28T00:58:58.622Z,146397.41
2023-04-28T01:00:00.958Z,146380.50
2023-04-28T01:01:08.388Z,146414.28
2023-04-28T01:02:17.254Z,146375.69
2023-04-28T01:03:19.805Z,146380.50
2023-04-28T01:04:23.098Z,146397.41
2023-04-28T01:05:25.824Z,146392.56
2023-04-28T01:06:29.340Z,146402.22
2023-04-28T01:07:34.870Z,146386.53
2023-04-28T01:08:38.880Z,146407.06
2023-04-28T01:09:45.214Z,146403.44
2023-04-28T01:10:57.674Z,146395.00
2023-04-28T01:12:23.055Z,146398.63
2023-04-28T01:13:28.786Z,146414.28
2023-04-28T01:14:32.310Z,146423.91
2023-04-28T01:15:34.506Z,146392.56
2023-04-28T01:16:38.564Z,146405.84
2023-04-28T01:17:41.820Z,146390.16
2023-04-28T01:18:48.214Z,146421.50
2023-04-28T01:19:50.612Z,146395.00
2023-04-28T01:20:52.782Z,146404.66
2023-04-28T01:21:54.900Z,146407.06
2023-04-28T01:22:58.497Z,146393.75
2023-04-28T01:24:01.720Z,146398.63
2023-04-28T01:25:04.285Z,146380.50
2023-04-28T01:26:06.533Z,146390.16
2023-04-28T01:27:09.058Z,146390.16
2023-04-28T01:28:13.269Z,146380.50
2023-04-28T01:29:15.811Z,146380.50
2023-04-28T01:30:18.079Z,146384.13
2023-04-28T01:31:20.419Z,146385.34
2023-04-28T01:32:22.712Z,146387.75
2023-04-28T01:33:24.960Z,146395.00
2023-04-28T01:34:27.148Z,146395.00
2023-04-28T01:35:29.907Z,146395.00
2023-04-28T01:36:33.516Z,146390.16
2023-04-28T01:37:36.978Z,146387.75
2023-04-28T01:38:39.196Z,146395.00
2023-04-28T01:39:41.454Z,146385.34
2023-04-28T01:40:43.667Z,146385.34
2023-04-28T01:41:46.012Z,146378.09
2023-04-28T01:42:48.243Z,146373.28
2023-04-28T01:43:50.783Z,146368.47
2023-04-28T01:44:53.676Z,146378.09
2023-04-28T01:45:56.226Z,146373.28
2023-04-28T01:46:58.445Z,146380.50
2023-04-28T01:48:00.909Z,146390.16
2023-04-28T01:49:03.153Z,146380.50
2023-04-28T01:50:06.171Z,146375.69
2023-04-28T01:51:08.309Z,146368.47
2023-04-28T01:52:14.013Z,146366.06
2023-04-28T01:53:20.528Z,146370.88
2023-04-28T01:54:23.326Z,146378.09
2023-04-28T01:55:26.039Z,146361.19
2023-04-28T01:56:28.417Z,146349.16
2023-04-28T01:57:34.925Z,146344.34
2023-04-28T01:58:37.545Z,146329.84
2023-04-28T01:59:40.686Z,146316.63
2023-04-28T02:00:43.021Z,146335.91
2023-04-28T02:01:45.842Z,146311.78
2023-04-28T02:02:48.197Z,146313.00
2023-04-28T02:03:50.680Z,146315.41
2023-04-28T02:04:53.265Z,146322.63
2023-04-28T02:05:55.531Z,146325.03
2023-04-28T02:06:57.765Z,146315.41
2023-04-28T02:07:59.936Z,146323.84
2023-04-28T02:09:02.142Z,146329.84
2023-04-28T02:10:04.747Z,146328.66
2023-04-28T02:11:07.082Z,146321.44
2023-04-28T02:12:09.215Z,146320.22
2023-04-28T02:13:11.865Z,146310.59
2023-04-28T02:14:14.283Z,146294.91
2023-04-28T02:15:17.042Z,146284.06
2023-04-28T02:16:19.267Z,146303.38
2023-04-28T02:17:21.568Z,146305.78
2023-04-28T02:18:23.783Z,146315.41
2023-04-28T02:19:26.034Z,146300.97
2023-04-28T02:20:29.918Z,146306.97
2023-04-28T02:21:33.489Z,146298.56
2023-04-28T02:22:35.623Z,146292.50
2023-04-28T02:23:38.141Z,146293.69
2023-04-28T02:24:40.762Z,146299.75
2023-04-28T02:25:42.975Z,146285.25
2023-04-28T02:26:48.242Z,146287.66
2023-04-28T02:27:50.401Z,146288.88
2023-04-28T02:28:52.601Z,146286.47
2023-04-28T02:29:54.795Z,146284.06
2023-04-28T02:31:11.398Z,146322.63
2023-04-28T02:32:13.570Z,146284.06
2023-04-28T02:33:15.888Z,146272.03
2023-04-28T02:34:18.277Z,146269.63
2023-04-28T02:35:20.632Z,146270.81
2023-04-28T02:36:22.811Z,146267.22
2023-04-28T02:37:25.082Z,146262.34
2023-04-28T02:38:27.664Z,146267.22
2023-04-28T02:39:31.140Z,146262.34
2023-04-28T02:40:33.359Z,146250.31
2023-04-28T02:41:36.080Z,146243.09
2023-04-28T02:42:38.210Z,146245.50
2023-04-28T02:43:40.720Z,146244.28
2023-04-28T02:44:42.865Z,146244.28
2023-04-28T02:45:45.020Z,146259.94
2023-04-28T02:46:47.400Z,146251.53
2023-04-28T02:47:49.673Z,146262.34
2023-04-28T02:48:52.137Z,146256.34
2023-04-28T02:49:54.301Z,146262.34
2023-04-28T02:50:56.829Z,146256.34
2023-04-28T02:51:59.039Z,146263.56
2023-04-28T02:53:01.338Z,146249.09
2023-04-28T02:54:03.631Z,146237.06
2023-04-28T02:55:06.661Z,146249.09
2023-04-28T02:56:08.811Z,146264.75
2023-04-28T02:57:11.167Z,146261.16
2023-04-28T02:58:13.589Z,146272.03
2023-04-28T02:59:15.700Z,146262.34
2023-04-28T03:00:18.163Z,146259.94
2023-04-28T03:01:23.712Z,146267.22
2023-04-28T03:02:26.140Z,146268.41
2023-04-28T03:03:28.623Z,146259.94
2023-04-28T03:04:31.117Z,146267.22
2023-04-28T03:05:33.663Z,146267.22
2023-04-28T03:06:36.088Z,146272.03
2023-04-28T03:07:38.284Z,146276.84
2023-04-28T03:08:40.594Z,146269.63
2023-04-28T03:09:42.739Z,146272.03
2023-04-28T03:10:44.961Z,146268.41
2023-04-28T03:11:47.205Z,146274.44
2023-04-28T03:12:49.433Z,146293.69
2023-04-28T03:13:51.666Z,146284.06
2023-04-28T03:14:53.853Z,146284.06
2023-04-28T03:15:56.211Z,146288.88
2023-04-28T03:16:58.697Z,146279.25
2023-04-28T03:18:01.304Z,146276.84
2023-04-28T03:19:04.324Z,146284.06
2023-04-28T03:20:07.329Z,146309.38
2023-04-28T03:21:09.502Z,146303.38
2023-04-28T03:22:12.097Z,146303.38
2023-04-28T03:23:14.266Z,146303.38
2023-04-28T03:24:16.639Z,146303.38
2023-04-28T03:25:19.878Z,146298.56
2023-04-28T03:26:24.762Z,146308.19
2023-04-28T03:27:28.063Z,146317.81
2023-04-28T03:28:31.958Z,146322.63
2023-04-28T03:29:35.423Z,146326.25
2023-04-28T03:30:37.731Z,146335.91
2023-04-28T03:31:40.112Z,146338.31
2023-04-28T03:32:42.468Z,146303.38
2023-04-28T03:33:47.048Z,146319.03
2023-04-28T03:34:51.451Z,146300.97
2023-04-28T03:35:54.234Z,146300.97
2023-04-28T03:36:56.547Z,146303.38
2023-04-28T03:38:03.728Z,146274.44
2023-04-28T03:39:06.172Z,146276.84
2023-04-28T03:40:09.101Z,146279.25
2023-04-28T03:41:49.454Z,146274.44
2023-04-28T03:43:09.981Z,146274.44
2023-04-28T03:44:21.663Z,146268.41
2023-04-28T03:45:24.571Z,146247.91
2023-04-28T03:46:27.267Z,146279.25
2023-04-28T03:47:30.021Z,146263.56
2023-04-28T03:48:32.320Z,146255.13
2023-04-28T03:49:34.534Z,146263.56
2023-04-28T03:50:36.853Z,146267.22
2023-04-28T03:51:39.142Z,146259.94
2023-04-28T03:52:41.455Z,146262.34
2023-04-28T03:53:43.612Z,146239.47
2023-04-28T03:54:46.233Z,146250.31
2023-04-28T03:55:48.671Z,146259.94
2023-04-28T03:56:51.037Z,146257.53
2023-04-28T03:57:53.320Z,146246.69
2023-04-28T03:58:55.546Z,146269.63
2023-04-28T03:59:57.909Z,146264.75
2023-04-28T04:01:01.008Z,146278.03
2023-04-28T04:02:03.249Z,146267.22
2023-04-28T04:03:05.777Z,146263.56
2023-04-28T04:04:08.255Z,146259.94
2023-04-28T04:05:10.876Z,146259.94
2023-04-28T04:06:13.650Z,146288.88
2023-04-28T04:07:16.540Z,146279.25
2023-04-28T04:08:19.280Z,146293.69
2023-04-28T04:09:21.623Z,146292.50
2023-04-28T04:10:23.748Z,146298.56
2023-04-28T04:11:27.322Z,146293.69
2023-04-28T04:12:29.627Z,146274.44
2023-04-28T04:13:32.127Z,146282.88
2023-04-28T04:14:34.524Z,146296.09
2023-04-28T04:15:36.848Z,146275.63
2023-04-28T04:16:39.849Z,146279.25
2023-04-28T04:17:42.074Z,146298.56
2023-04-28T04:18:44.348Z,146293.69
2023-04-28T04:19:58.483Z,146309.38
2023-04-28T04:21:02.287Z,146293.69
2023-04-28T04:22:04.697Z,146315.41
2023-04-28T04:23:06.991Z,146317.81
2023-04-28T04:24:09.173Z,146323.84
2023-04-28T04:25:11.345Z,146319.03
2023-04-28T04:26:14.102Z,146327.44
2023-04-28T04:27:16.275Z,146305.78
2023-04-28T04:28:18.500Z,146322.63
2023-04-28T04:29:20.667Z,146332.31
2023-04-28T04:30:22.863Z,146315.41
2023-04-28T04:31:25.655Z,146322.63
2023-04-28T04:32:28.018Z,146302.16
2023-04-28T04:33:30.659Z,146319.03
2023-04-28T04:34:32.933Z,146327.44
2023-04-28T04:35:35.358Z,146331.09
2023-04-28T04:36:37.747Z,146341.94
2023-04-28T04:37:40.606Z,146360.00
2023-04-28T04:38:42.788Z,146361.19
2023-04-28T04:39:50.882Z,146353.97
2023-04-28T04:40:53.203Z,146358.78
2023-04-28T04:41:55.381Z,146374.50
2023-04-28T04:43:13.368Z,146373.28
2023-04-28T04:44:21.721Z,146382.91
2023-04-28T04:45:26.799Z,146367.28
2023-04-28T04:46:29.231Z,146363.66
2023-04-28T04:47:31.988Z,146373.28
2023-04-28T04:48:34.737Z,146366.06
2023-04-28T04:49:37.288Z,146382.91
2023-04-28T04:50:41.054Z,146409.47
2023-04-28T04:51:43.316Z,146415.47
2023-04-28T04:52:45.736Z,146428.78
2023-04-28T04:53:47.972Z,146409.47
2023-04-28T04:54:50.643Z,146399.81
2023-04-28T04:55:53.329Z,146392.56
2023-04-28T04:56:55.979Z,146416.69
2023-04-28T04:58:14.016Z,146425.13
2023-04-28T04:59:54.656Z,146423.91
2023-04-28T05:00:56.901Z,146452.84
2023-04-28T05:01:59.381Z,146452.84
2023-04-28T05:03:01.755Z,146457.69
2023-04-28T05:04:04.346Z,146477.00
2023-04-28T05:05:19.818Z,146464.94
2023-04-28T05:06:27.589Z,146462.53
2023-04-28T05:07:29.767Z,146461.34
2023-04-28T05:08:32.073Z,146470.97
2023-04-28T05:09:34.369Z,146467.34
2023-04-28T05:10:36.817Z,146452.84
2023-04-28T05:11:39.502Z,146486.63
2023-04-28T05:12:41.691Z,146509.56
2023-04-28T05:13:43.896Z,146518.00
2023-04-28T05:14:47.620Z,146511.97
2023-04-28T05:15:50.540Z,146524.03
2023-04-28T05:17:15.911Z,146539.78
2023-04-28T05:18:18.635Z,146551.81
2023-04-28T05:19:21.103Z,146515.59
2023-04-28T05:20:23.871Z,146559.09
2023-04-28T05:21:26.345Z,146572.34
2023-04-28T05:22:31.083Z,146559.09
2023-04-28T05:23:33.569Z,146579.56
2023-04-28T05:24:36.062Z,146583.19
2023-04-28T05:25:38.450Z,146604.91
2023-04-28T05:26:41.111Z,146603.72
2023-04-28T05:27:45.393Z,146586.81
2023-04-28T05:28:47.746Z,146602.50
2023-04-28T05:29:50.353Z,146629.06
2023-04-28T05:30:52.553Z,146645.94
2023-04-28T05:31:55.451Z,146639.91
2023-04-28T05:32:59.219Z,146677.31
2023-04-28T05:34:01.772Z,146707.50
2023-04-28T05:35:04.158Z,146723.22
2023-04-28T05:36:07.351Z,146730.44
2023-04-28T05:37:09.993Z,146752.13
2023-04-28T05:38:15.218Z,146757.00
2023-04-28T05:39:19.275Z,146742.50
2023-04-28T05:40:23.084Z,146722.00
2023-04-28T05:41:25.561Z,146708.69
2023-04-28T05:42:27.816Z,146713.53
2023-04-28T05:43:30.074Z,146700.25
2023-04-28T05:44:32.409Z,146712.31
2023-04-28T05:45:35.549Z,146691.81
2023-04-28T05:46:38.313Z,146671.28
2023-04-28T05:47:41.542Z,146697.84
2023-04-28T05:48:43.930Z,146686.97
2023-04-28T05:49:46.601Z,146711.13
2023-04-28T05:50:49.514Z,146679.72
2023-04-28T05:51:51.975Z,146740.09
2023-04-28T05:52:54.197Z,146758.22
2023-04-28T05:53:56.755Z,146789.59
2023-04-28T05:54:58.998Z,146808.91
2023-04-28T05:56:02.987Z,146800.44
2023-04-28T05:57:05.479Z,146790.81
2023-04-28T05:58:08.130Z,146843.91
2023-04-28T05:59:10.385Z,146827.03
2023-04-28T06:00:13.100Z,146883.78
2023-04-28T06:01:16.862Z,146913.94
2023-04-28T06:02:20.576Z,146882.53
2023-04-28T06:03:25.765Z,146888.63
2023-04-28T06:04:28.475Z,146892.22
2023-04-28T06:05:31.394Z,146889.81
2023-04-28T06:06:34.528Z,146894.66
2023-04-28T06:07:37.046Z,146885.00
2023-04-28T06:08:39.215Z,146885.00
2023-04-28T06:09:41.421Z,146848.72
2023-04-28T06:10:43.740Z,146860.84
2023-04-28T06:11:46.023Z,146859.63
2023-04-28T06:12:48.402Z,146860.84
2023-04-28T06:13:51.579Z,146880.13
2023-04-28T06:14:55.759Z,146897.06
2023-04-28T06:16:01.734Z,146851.19
2023-04-28T06:17:04.750Z,146851.19
2023-04-28T06:18:09.662Z,146877.72
2023-04-28T06:19:11.984Z,146885.00
2023-04-28T06:20:14.451Z,146924.84
2023-04-28T06:21:17.242Z,146918.81
2023-04-28T06:22:19.499Z,146897.06
2023-04-28T06:23:22.108Z,146912.75
2023-04-28T06:24:25.808Z,146898.25
2023-04-28T06:25:30.591Z,146916.41
2023-04-28T06:26:32.734Z,146913.94
2023-04-28T06:27:36.124Z,146941.72
2023-04-28T06:28:38.389Z,146970.72
2023-04-28T06:29:40.602Z,147000.94
2023-04-28T06:30:42.777Z,147003.34
2023-04-28T06:31:44.999Z,146991.28
2023-04-28T06:32:47.469Z,147042.00
2023-04-28T06:33:49.612Z,147068.59
2023-04-28T06:34:51.738Z,147058.94
2023-04-28T06:35:53.855Z,147033.53
2023-04-28T06:36:56.129Z,147051.69
2023-04-28T06:37:58.353Z,147002.13
2023-04-28T06:39:00.799Z,147039.56
2023-04-28T06:40:03.565Z,147056.53
2023-04-28T06:41:06.044Z,147037.16
2023-04-28T06:42:08.448Z,147092.75
2023-04-28T06:43:12.847Z,147086.72
2023-04-28T06:44:36.448Z,147095.19
2023-04-28T06:45:39.196Z,147112.16
2023-04-28T06:46:42.014Z,147136.31
2023-04-28T06:47:45.851Z,147155.66
2023-04-28T06:48:48.282Z,147146.00
2023-04-28T06:49:52.410Z,147150.81
2023-04-28T06:50:54.654Z,147170.13
2023-04-28T06:51:58.127Z,147179.84
2023-04-28T06:53:01.244Z,147183.47
2023-04-28T06:54:05.296Z,147230.59
2023-04-28T06:55:09.446Z,147203.97
2023-04-28T06:56:11.995Z,147187.09
2023-04-28T06:57:14.403Z,147185.88
2023-04-28T06:58:16.846Z,147225.75
2023-04-28T06:59:19.052Z,147241.50
2023-04-28T07:00:21.383Z,147272.88
2023-04-28T07:01:23.700Z,147276.56
2023-04-28T07:02:27.138Z,147314.03
2023-04-28T07:03:29.490Z,147312.81
2023-04-28T07:04:31.688Z,147271.69
2023-04-28T07:05:34.320Z,147268.06
2023-04-28T07:06:36.461Z,147265.63
2023-04-28T07:07:39.075Z,147291.03
2023-04-28T07:08:42.090Z,147255.97
2023-04-28T07:09:46.568Z,147286.22
2023-04-28T07:10:48.810Z,147252.38
2023-04-28T07:11:50.932Z,147308.00
2023-04-28T07:12:53.199Z,147317.66
2023-04-28T07:13:55.378Z,147306.78
2023-04-28T07:14:57.505Z,147349.09
2023-04-28T07:15:59.855Z,147344.28
2023-04-28T07:17:02.833Z,147336.97
2023-04-28T07:18:05.150Z,147387.78
2023-04-28T07:19:07.340Z,147407.16
2023-04-28T07:20:09.789Z,147353.94
2023-04-28T07:21:11.936Z,147329.72
2023-04-28T07:22:14.061Z,147356.34
2023-04-28T07:23:16.727Z,147426.50
2023-04-28T07:24:19.021Z,147448.28
2023-04-28T07:25:21.588Z,147489.41
2023-04-28T07:26:24.208Z,147519.66
2023-04-28T07:27:26.709Z,147511.19
2023-04-28T07:28:28.987Z,147523.28
2023-04-28T07:29:35.239Z,147518.44
2023-04-28T07:30:37.981Z,147502.72
2023-04-28T07:31:40.240Z,147530.53
2023-04-28T07:32:43.928Z,147583.81
2023-04-28T07:33:46.285Z,147577.78
2023-04-28T07:34:48.882Z,147623.75
2023-04-28T07:35:52.590Z,147612.88
2023-04-28T07:36:55.583Z,147553.56
2023-04-28T07:37:58.187Z,147583.81
2023-04-28T07:39:01.919Z,147633.47
2023-04-28T07:40:05.258Z,147628.59
2023-04-28T07:41:09.941Z,147644.34
2023-04-28T07:42:13.440Z,147664.94
2023-04-28T07:43:15.833Z,147714.53
2023-04-28T07:44:18.741Z,147690.31
2023-04-28T07:45:21.425Z,147670.97
2023-04-28T07:46:23.846Z,147704.88
2023-04-28T07:47:26.763Z,147738.78
2023-04-28T07:48:29.015Z,147741.19
2023-04-28T07:49:31.744Z,147763.00
2023-04-28T07:50:34.614Z,147785.97
2023-04-28T07:51:37.159Z,147733.94
2023-04-28T07:52:39.703Z,147656.44
2023-04-28T07:53:42.013Z,147579.00
2023-04-28T07:54:44.206Z,147555.97
2023-04-28T07:55:46.361Z,147564.44
2023-04-28T07:56:48.667Z,147608.03
2023-04-28T07:57:51.172Z,147615.28
2023-04-28T07:58:54.523Z,147617.72
2023-04-28T07:59:56.790Z,147617.72
2023-04-28T08:00:59.002Z,147608.03
2023-04-28T08:02:01.352Z,147603.22
2023-04-28T08:03:03.769Z,147626.16
2023-04-28T08:04:06.606Z,147617.72
2023-04-28T08:05:09.875Z,147606.84
2023-04-28T08:06:13.076Z,147605.63
2023-04-28T08:07:15.303Z,147621.34
2023-04-28T08:08:17.450Z,147631.00
2023-04-28T08:09:19.918Z,147641.94
2023-04-28T08:10:22.086Z,147606.84
2023-04-28T08:11:24.278Z,147644.34
2023-04-28T08:12:26.578Z,147700.03
2023-04-28T08:13:29.083Z,147733.94
2023-04-28T08:14:32.505Z,147697.63
2023-04-28T08:15:34.934Z,147707.28
2023-04-28T08:16:40.309Z,147724.22
2023-04-28T08:17:42.549Z,147779.94
2023-04-28T08:18:45.886Z,147798.09
2023-04-28T08:19:48.852Z,147812.63
2023-04-28T08:20:51.004Z,147833.22
2023-04-28T08:21:53.143Z,147887.69
2023-04-28T08:22:55.653Z,147925.22
2023-04-28T08:23:57.775Z,147925.22
2023-04-28T08:24:59.990Z,147959.25
2023-04-28T08:26:02.240Z,147948.31
2023-04-28T08:27:04.508Z,147995.59
2023-04-28T08:28:08.684Z,147976.19
2023-04-28T08:29:10.854Z,148024.66
2023-04-28T08:30:13.304Z,148064.66
2023-04-28T08:31:15.506Z,148030.72
2023-04-28T08:32:18.268Z,148000.41
2023-04-28T08:33:20.466Z,147976.19
2023-04-28T08:34:22.962Z,147976.19
2023-04-28T08:35:25.328Z,147993.16
2023-04-28T08:36:31.864Z,147964.09
2023-04-28T08:37:34.340Z,147973.75
2023-04-28T08:38:36.563Z,147892.53
2023-04-28T08:39:38.729Z,147904.66
2023-04-28T08:40:42.833Z,147911.94
2023-04-28T08:41:45.340Z,147926.53
2023-04-28T08:42:47.773Z,147961.66
2023-04-28T08:43:49.938Z,147917.97
2023-04-28T08:44:59.342Z,147932.59
2023-04-28T08:46:06.921Z,147942.25
2023-04-28T08:47:14.192Z,147939.84
2023-04-28T08:48:21.222Z,147898.63
2023-04-28T08:49:33.030Z,147888.91
2023-04-28T08:50:36.548Z,147864.72
2023-04-28T08:51:49.908Z,147876.81
2023-04-28T08:52:53.445Z,147901.03
2023-04-28T08:54:22.324Z,147925.22
2023-04-28T08:55:21.949Z,147951.94
2023-04-28T08:56:25.071Z,147931.38
2023-04-28T08:57:28.445Z,147935.00
2023-04-28T08:58:31.151Z,147998.00
2023-04-28T08:59:33.499Z,148006.47
2023-04-28T09:00:38.091Z,148041.59
2023-04-28T09:01:40.307Z,148011.31
2023-04-28T09:02:42.897Z,148028.31
2023-04-28T09:03:47.883Z,148087.63
2023-04-28T09:04:50.425Z,148082.78
2023-04-28T09:05:52.834Z,148050.06
2023-04-28T09:06:55.034Z,148006.47
2023-04-28T09:07:57.233Z,148034.34
2023-04-28T09:09:22.009Z,148097.38
2023-04-28T09:10:26.554Z,148065.84
2023-04-28T09:11:28.686Z,147983.44
2023-04-28T09:12:37.943Z,148056.13
2023-04-28T09:13:41.078Z,148007.69
2023-04-28T09:14:43.314Z,147981.03
2023-04-28T09:15:45.600Z,148035.56
2023-04-28T09:16:48.184Z,148021.00
2023-04-28T09:17:52.018Z,148019.78
2023-04-28T09:18:58.198Z,148028.31
2023-04-28T09:20:01.458Z,148065.84
2023-04-28T09:21:10.512Z,148143.41
2023-04-28T09:22:24.768Z,148147.03
2023-04-28T09:23:28.713Z,148208.84
2023-04-28T09:24:43.219Z,148367.75
2023-04-28T09:26:05.679Z,148449.06
2023-04-28T09:27:11.512Z,148468.44
2023-04-28T09:28:22.067Z,148581.34
2023-04-28T09:29:24.530Z,148572.81
2023-04-28T09:30:42.418Z,148726.97
2023-04-28T09:31:44.675Z,148720.91
2023-04-28T09:33:04.696Z,148847.25
2023-04-28T09:34:07.296Z,148888.53
2023-04-28T09:35:09.769Z,148968.66
2023-04-28T09:36:11.968Z,148976.00
2023-04-28T09:37:22.449Z,148945.63
2023-04-28T09:38:24.756Z,149005.16
2023-04-28T09:39:33.300Z,149000.25
2023-04-28T09:40:58.694Z,148932.22
2023-04-28T09:42:03.573Z,148910.41
2023-04-28T09:43:23.341Z,148961.41
2023-04-28T09:44:25.614Z,148980.84
2023-04-28T09:45:42.489Z,148907.97
2023-04-28T09:46:46.158Z,148780.41
2023-04-28T09:47:48.688Z,148771.88
2023-04-28T09:49:01.766Z,148838.72
2023-04-28T09:50:06.620Z,148802.25
2023-04-28T09:51:10.996Z,148799.81
2023-04-28T09:52:14.650Z,148838.72
2023-04-28T09:53:19.648Z,148824.13
2023-04-28T09:54:23.555Z,148756.13
2023-04-28T09:55:28.329Z,148669.91
2023-04-28T09:56:32.334Z,148632.28
2023-04-28T09:57:36.007Z,148660.22
2023-04-28T09:58:40.889Z,148612.91
2023-04-28T09:59:47.558Z,148537.59
2023-04-28T10:00:57.945Z,148526.69
2023-04-28T10:02:04.033Z,148478.13
2023-04-28T10:03:15.524Z,148438.09
2023-04-28T10:04:18.846Z,148432.03
2023-04-28T10:05:23.284Z,148470.84
2023-04-28T10:06:28.876Z,148383.56
2023-04-28T10:07:34.991Z,148469.66
2023-04-28T10:08:37.957Z,148517.00
2023-04-28T10:09:44.110Z,148499.97
2023-04-28T10:10:49.144Z,148518.19
2023-04-28T10:11:52.551Z,148497.56
2023-04-28T10:12:55.185Z,148427.19
2023-04-28T10:13:57.950Z,148387.19
2023-04-28T10:15:00.540Z,148356.84
2023-04-28T10:16:04.419Z,148359.28
2023-04-28T10:17:07.603Z,148310.75
2023-04-28T10:18:11.896Z,148364.13
2023-04-28T10:19:14.064Z,148383.56
2023-04-28T10:20:16.976Z,148343.50
2023-04-28T10:21:22.064Z,148385.97
2023-04-28T10:23:01.043Z,148438.09
2023-04-28T10:24:13.317Z,148385.97
2023-04-28T10:25:29.835Z,148338.66
2023-04-28T10:27:09.470Z,148385.97
2023-04-28T10:28:12.061Z,148335.00
2023-04-28T10:30:30.586Z,148314.38
2023-04-28T10:31:33.479Z,148275.59
2023-04-28T10:32:35.747Z,148223.44
2023-04-28T10:33:39.012Z,148230.69
2023-04-28T10:34:41.402Z,148247.66
2023-04-28T10:35:45.729Z,148270.75
2023-04-28T10:36:51.064Z,148225.84
2023-04-28T10:38:11.903Z,148254.97
2023-04-28T10:39:14.268Z,148252.53
2023-04-28T10:40:48.518Z,148269.53
2023-04-28T10:41:50.794Z,148258.63
2023-04-28T10:42:56.162Z,148250.06
2023-04-28T10:43:58.384Z,148240.38
2023-04-28T10:45:00.543Z,148211.28
2023-04-28T10:46:06.730Z,148271.97
2023-04-28T10:47:10.135Z,148295.00
2023-04-28T10:48:12.550Z,148275.59
2023-04-28T10:49:14.677Z,148321.69
2023-04-28T10:50:16.901Z,148254.97
2023-04-28T10:51:20.751Z,148245.22
2023-04-28T10:52:40.751Z,148211.28
2023-04-28T10:53:43.618Z,148174.91
2023-04-28T10:55:24.039Z,148194.34
2023-04-28T10:56:27.810Z,148174.91
2023-04-28T10:57:30.027Z,148191.91
2023-04-28T10:58:32.609Z,148219.81
2023-04-28T10:59:34.862Z,148162.81
2023-04-28T11:00:37.622Z,148166.44
2023-04-28T11:01:40.598Z,148150.66
2023-04-28T11:02:44.928Z,148099.78
2023-04-28T11:03:47.514Z,148128.88
2023-04-28T11:05:12.656Z,148190.69
2023-04-28T11:06:26.700Z,148223.44
2023-04-28T11:07:28.916Z,148223.44
2023-04-28T11:08:31.762Z,148236.75
2023-04-28T11:09:33.850Z,148245.22
2023-04-28T11:11:10.057Z,148310.75
2023-04-28T11:12:12.357Z,148225.84
2023-04-28T11:13:34.239Z,148325.31
2023-04-28T11:14:43.229Z,148274.38
2023-04-28T11:16:03.145Z,148344.69
2023-04-28T11:17:07.720Z,148366.53
2023-04-28T11:18:20.240Z,148274.38
2023-04-28T11:19:22.959Z,148261.06
2023-04-28T11:20:26.928Z,148212.50
2023-04-28T11:21:29.515Z,148225.84
2023-04-28T11:22:32.353Z,148191.91
2023-04-28T11:23:35.382Z,148212.50
2023-04-28T11:24:38.138Z,148247.66
2023-04-28T11:25:56.721Z,148347.13
2023-04-28T11:26:59.403Z,148291.38
2023-04-28T11:28:06.994Z,148378.66
2023-04-28T11:29:09.287Z,148364.13
2023-04-28T11:30:22.309Z,148449.06
2023-04-28T11:31:26.382Z,148442.94
2023-04-28T11:32:35.823Z,148495.13
2023-04-28T11:33:38.908Z,148438.09
2023-04-28T11:34:41.106Z,148441.75
2023-04-28T11:35:43.806Z,148344.69
2023-04-28T11:36:46.023Z,148327.75
2023-04-28T11:38:04.083Z,148315.59
2023-04-28T11:39:08.918Z,148318.06
2023-04-28T11:40:13.007Z,148313.16
2023-04-28T11:41:15.160Z,148352.00
2023-04-28T11:42:17.510Z,148308.31
2023-04-28T11:43:43.741Z,148339.88
2023-04-28T11:44:55.475Z,148368.97
2023-04-28T11:45:57.967Z,148417.50
2023-04-28T11:47:03.103Z,148517.00
2023-04-28T11:48:22.218Z,148462.38
2023-04-28T11:49:25.126Z,148550.97
2023-04-28T11:50:37.787Z,148612.91
2023-04-28T11:51:40.092Z,148608.00
2023-04-28T11:52:51.026Z,148728.19
2023-04-28T11:53:55.564Z,148695.41
2023-04-28T11:55:02.073Z,148774.31
2023-04-28T11:56:10.738Z,148790.13
2023-04-28T11:57:21.469Z,148650.53
2023-04-28T11:58:24.890Z,148650.53
2023-04-28T11:59:32.429Z,148694.19
2023-04-28T12:00:34.738Z,148667.50
2023-04-28T12:01:59.441Z,148713.66
2023-04-28T12:03:08.327Z,148708.75
2023-04-28T12:04:10.843Z,148610.44
2023-04-28T12:05:13.234Z,148694.19
2023-04-28T12:06:19.147Z,148696.63
2023-04-28T12:07:21.580Z,148621.38
2023-04-28T12:08:29.696Z,148660.22
2023-04-28T12:09:33.472Z,148614.13
2023-04-28T12:10:35.921Z,148611.66
2023-04-28T12:11:38.158Z,148640.78
2023-04-28T12:12:51.076Z,148570.41
2023-04-28T12:14:06.259Z,148633.50
2023-04-28T12:15:09.463Z,148626.22
2023-04-28T12:16:11.687Z,148651.72
2023-04-28T12:17:30.005Z,148642.00